Tuesday, November 21, 2017, 10:53 PM EST
Back to Local

KMTP, Montauk Airport

Location: Montauk, NY, United States Lat: 41.067
Local Time: 10:53 PM EST ( 3:53 GMT) Lon: -71.917
Time Zone: US/Eastern Elev: 6 ft

Show me the last for .
Show Decoded

2017-11-21 20:54 METAR KMTP 220154Z AUTO 23008KT 14/09 A3008 RMK AO1 SLP187 T01440094 =
2017-11-21 19:54 METAR KMTP 220054Z AUTO 22011G23KT 14/08 A3007 RMK AO1 SLP183 T01440083 =
2017-11-21 18:54 METAR KMTP 212354Z AUTO 21011G20KT 14/07 A3007 RMK AO1 SLP181 T01390072 10144
                 20133 56005 =
2017-11-21 17:54 METAR KMTP 212254Z AUTO 21010G17KT 13/08 A3007 RMK AO1 SLP183 T01330078 =
2017-11-21 16:54 METAR KMTP 212154Z AUTO 21011G19KT 13/06 A3006 RMK AO1 SLP178 T01330061 =
2017-11-21 15:54 METAR KMTP 212054Z AUTO 22009G18KT 13/05 A3008 RMK AO1 SLP186 T01330050 56009 =
2017-11-21 14:54 METAR KMTP 211954Z AUTO 22011G20KT 14/06 A3009 RMK AO1 PK WND 21027/1913 SLP188
                 T01390056 =
2017-11-21 13:54 METAR KMTP 211854Z AUTO 21011G24KT 14/05 A3008 RMK AO1 SLP187 T01390050 =
2017-11-21 12:54 METAR KMTP 211754Z AUTO 21012G22KT 14/04 A3011 RMK AO1 SLP195 T01440039 10150
                 20094 58022 =
2017-11-21 11:54 METAR KMTP 211654Z AUTO 22012G24KT 14/04 A3013 RMK AO1 SLP202 T01440039 =
2017-11-21 10:54 METAR KMTP 211554Z AUTO 21011G20KT 180V250 14/04 A3016 RMK AO1 SLP212 T01440039
                 =
2017-11-21 09:54 METAR KMTP 211454Z AUTO 22011G19KT 14/03 A3017 RMK AO1 SLP217 T01390033 51005 =
2017-11-21 08:54 METAR KMTP 211354Z AUTO 24012G22KT 13/03 A3017 RMK AO1 SLP216 T01330028 =
2017-11-21 07:54 METAR KMTP 211254Z AUTO 24005KT 11/04 A3017 RMK AO1 SLP217 T01060039 =
2017-11-21 06:54 METAR KMTP 211154Z AUTO 24006KT 09/02 A3016 RMK AO1 SLP211 T00940022 10094 20078
                 53004 =
2017-11-21 05:54 METAR KMTP 211054Z AUTO 24007G14KT 09/02 A3015 RMK AO1 SLP210 T00940017 =
2017-11-21 04:54 METAR KMTP 210954Z AUTO 23005KT 09/01 A3015 RMK AO1 SLP208 T00890011 =
2017-11-21 03:54 METAR KMTP 210854Z AUTO 24008KT 08/01 A3015 RMK AO1 SLP207 T00830006 51001 =
2017-11-21 02:54 METAR KMTP 210754Z AUTO 24007KT 08/00 A3014 RMK AO1 SLP207 T00830000 =
2017-11-21 01:54 METAR KMTP 210654Z AUTO 24010G17KT 08/M02 A3015 RMK AO1 SLP210 T00781017 =
2017-11-21 00:54 METAR KMTP 210554Z AUTO 24007KT 08/M02 A3014 RMK AO1 SLP207 T00781022 10078
                 20067 51008 =
2017-11-20 23:54 METAR KMTP 210454Z AUTO 24007KT 07/M02 A3014 RMK AO1 SLP206 T00721017 400780044
                 =
2017-11-20 22:54 METAR KMTP 210354Z AUTO 23007KT 07/M02 A3014 RMK AO1 SLP204 T00721017 =

Support USWX by starting your Amazon purchase here.